sensor_id;sensor_type;location;lat;lon;timestamp;P1;durP1;ratioP1;P2;durP2;ratioP2
61393;SDS011;48555;50.952;-0.120;2023-04-24T00:00:11;12.77;;;8.90;;
61393;SDS011;48555;50.952;-0.120;2023-04-24T00:02:40;12.18;;;8.82;;
61393;SDS011;48555;50.952;-0.120;2023-04-24T00:05:07;12.82;;;8.30;;
61393;SDS011;48555;50.952;-0.120;2023-04-24T00:07:33;14.45;;;8.70;;
61393;SDS011;48555;50.952;-0.120;2023-04-24T00:09:59;10.07;;;7.35;;
61393;SDS011;48555;50.952;-0.120;2023-04-24T00:12:25;11.60;;;8.07;;
61393;SDS011;48555;50.952;-0.120;2023-04-24T00:14:50;11.88;;;7.43;;
61393;SDS011;48555;50.952;-0.120;2023-04-24T00:17:16;11.38;;;7.38;;
61393;SDS011;48555;50.952;-0.120;2023-04-24T00:19:45;12.30;;;7.70;;
61393;SDS011;48555;50.952;-0.120;2023-04-24T00:22:10;11.82;;;8.05;;
61393;SDS011;48555;50.952;-0.120;2023-04-24T00:24:38;12.32;;;8.60;;
61393;SDS011;48555;50.952;-0.120;2023-04-24T00:27:03;12.57;;;8.80;;
61393;SDS011;48555;50.952;-0.120;2023-04-24T00:29:28;14.85;;;8.93;;
61393;SDS011;48555;50.952;-0.120;2023-04-24T00:31:54;12.35;;;9.18;;
61393;SDS011;48555;50.952;-0.120;2023-04-24T00:34:19;11.88;;;8.18;;
61393;SDS011;48555;50.952;-0.120;2023-04-24T00:36:45;12.30;;;8.70;;
61393;SDS011;48555;50.952;-0.120;2023-04-24T00:39:11;13.48;;;9.70;;
61393;SDS011;48555;50.952;-0.120;2023-04-24T00:41:36;13.13;;;8.52;;
61393;SDS011;48555;50.952;-0.120;2023-04-24T00:44:02;13.38;;;8.75;;
61393;SDS011;48555;50.952;-0.120;2023-04-24T00:46:27;12.55;;;8.70;;
61393;SDS011;48555;50.952;-0.120;2023-04-24T00:48:53;11.63;;;7.72;;
61393;SDS011;48555;50.952;-0.120;2023-04-24T00:51:20;13.65;;;9.65;;
61393;SDS011;48555;50.952;-0.120;2023-04-24T00:53:46;12.00;;;7.88;;
61393;SDS011;48555;50.952;-0.120;2023-04-24T00:56:11;12.00;;;8.18;;
61393;SDS011;48555;50.952;-0.120;2023-04-24T00:58:37;12.10;;;8.30;;
61393;SDS011;48555;50.952;-0.120;2023-04-24T01:01:02;12.38;;;8.65;;
61393;SDS011;48555;50.952;-0.120;2023-04-24T01:03:31;13.20;;;8.25;;
61393;SDS011;48555;50.952;-0.120;2023-04-24T01:05:58;11.85;;;8.85;;
61393;SDS011;48555;50.952;-0.120;2023-04-24T01:08:24;13.38;;;8.75;;
61393;SDS011;48555;50.952;-0.120;2023-04-24T01:10:51;13.55;;;9.15;;
61393;SDS011;48555;50.952;-0.120;2023-04-24T01:13:20;13.38;;;8.93;;
61393;SDS011;48555;50.952;-0.120;2023-04-24T01:15:46;13.65;;;9.30;;
61393;SDS011;48555;50.952;-0.120;2023-04-24T01:18:12;13.32;;;9.30;;
61393;SDS011;48555;50.952;-0.120;2023-04-24T01:20:39;13.13;;;10.05;;
61393;SDS011;48555;50.952;-0.120;2023-04-24T01:23:07;14.02;;;9.90;;
61393;SDS011;48555;50.952;-0.120;2023-04-24T01:25:33;12.95;;;8.90;;
61393;SDS011;48555;50.952;-0.120;2023-04-24T01:27:59;12.50;;;8.40;;
61393;SDS011;48555;50.952;-0.120;2023-04-24T01:30:26;14.05;;;9.32;;
61393;SDS011;48555;50.952;-0.120;2023-04-24T01:32:52;13.48;;;9.45;;
61393;SDS011;48555;50.952;-0.120;2023-04-24T01:35:18;14.50;;;10.00;;
61393;SDS011;48555;50.952;-0.120;2023-04-24T01:37:43;13.18;;;9.43;;
61393;SDS011;48555;50.952;-0.120;2023-04-24T01:40:09;12.10;;;8.35;;
61393;SDS011;48555;50.952;-0.120;2023-04-24T01:42:35;14.48;;;9.82;;
61393;SDS011;48555;50.952;-0.120;2023-04-24T01:45:01;13.55;;;9.75;;
61393;SDS011;48555;50.952;-0.120;2023-04-24T01:47:28;13.48;;;9.75;;
61393;SDS011;48555;50.952;-0.120;2023-04-24T01:49:55;12.50;;;8.63;;
61393;SDS011;48555;50.952;-0.120;2023-04-24T01:52:20;13.75;;;9.43;;
61393;SDS011;48555;50.952;-0.120;2023-04-24T01:54:46;14.23;;;9.93;;
61393;SDS011;48555;50.952;-0.120;2023-04-24T01:57:12;13.45;;;9.43;;
61393;SDS011;48555;50.952;-0.120;2023-04-24T01:59:39;12.90;;;9.35;;
61393;SDS011;48555;50.952;-0.120;2023-04-24T02:02:04;13.10;;;9.05;;
61393;SDS011;48555;50.952;-0.120;2023-04-24T02:04:29;14.77;;;9.32;;
61393;SDS011;48555;50.952;-0.120;2023-04-24T02:06:55;13.32;;;8.90;;
61393;SDS011;48555;50.952;-0.120;2023-04-24T02:09:20;13.02;;;8.80;;
61393;SDS011;48555;50.952;-0.120;2023-04-24T02:11:46;13.68;;;9.02;;
61393;SDS011;48555;50.952;-0.120;2023-04-24T02:14:11;12.85;;;9.00;;
61393;SDS011;48555;50.952;-0.120;2023-04-24T02:16:37;12.38;;;8.68;;
61393;SDS011;48555;50.952;-0.120;2023-04-24T02:19:02;12.32;;;8.48;;
61393;SDS011;48555;50.952;-0.120;2023-04-24T02:21:28;12.05;;;8.63;;
61393;SDS011;48555;50.952;-0.120;2023-04-24T02:23:53;13.93;;;8.60;;
61393;SDS011;48555;50.952;-0.120;2023-04-24T02:26:19;13.52;;;9.27;;
61393;SDS011;48555;50.952;-0.120;2023-04-24T02:28:45;13.40;;;9.75;;
61393;SDS011;48555;50.952;-0.120;2023-04-24T02:31:10;12.63;;;8.57;;
61393;SDS011;48555;50.952;-0.120;2023-04-24T02:33:35;11.75;;;8.43;;
61393;SDS011;48555;50.952;-0.120;2023-04-24T02:36:01;11.82;;;8.45;;
61393;SDS011;48555;50.952;-0.120;2023-04-24T02:38:28;11.68;;;8.65;;
61393;SDS011;48555;50.952;-0.120;2023-04-24T02:40:54;12.07;;;8.70;;
61393;SDS011;48555;50.952;-0.120;2023-04-24T02:43:19;13.32;;;9.20;;
61393;SDS011;48555;50.952;-0.120;2023-04-24T02:45:45;12.55;;;8.70;;
61393;SDS011;48555;50.952;-0.120;2023-04-24T02:48:10;13.13;;;9.25;;
61393;SDS011;48555;50.952;-0.120;2023-04-24T02:50:36;13.63;;;9.30;;
61393;SDS011;48555;50.952;-0.120;2023-04-24T02:53:01;11.50;;;8.15;;
61393;SDS011;48555;50.952;-0.120;2023-04-24T02:55:26;13.80;;;8.70;;
61393;SDS011;48555;50.952;-0.120;2023-04-24T02:57:52;13.10;;;8.25;;
61393;SDS011;48555;50.952;-0.120;2023-04-24T03:00:17;11.85;;;8.48;;
61393;SDS011;48555;50.952;-0.120;2023-04-24T03:02:42;13.82;;;8.68;;
61393;SDS011;48555;50.952;-0.120;2023-04-24T03:05:08;12.07;;;8.70;;
61393;SDS011;48555;50.952;-0.120;2023-04-24T03:07:34;11.48;;;7.90;;
61393;SDS011;48555;50.952;-0.120;2023-04-24T03:09:59;12.38;;;9.13;;
61393;SDS011;48555;50.952;-0.120;2023-04-24T03:12:25;13.32;;;8.27;;
61393;SDS011;48555;50.952;-0.120;2023-04-24T03:14:50;12.90;;;8.68;;
61393;SDS011;48555;50.952;-0.120;2023-04-24T03:17:15;12.77;;;8.75;;
61393;SDS011;48555;50.952;-0.120;2023-04-24T03:19:41;12.35;;;8.48;;
61393;SDS011;48555;50.952;-0.120;2023-04-24T03:22:06;13.25;;;8.77;;
61393;SDS011;48555;50.952;-0.120;2023-04-24T03:24:31;12.45;;;8.70;;
61393;SDS011;48555;50.952;-0.120;2023-04-24T03:26:57;14.15;;;9.15;;
61393;SDS011;48555;50.952;-0.120;2023-04-24T03:29:22;12.65;;;8.50;;
61393;SDS011;48555;50.952;-0.120;2023-04-24T03:31:48;12.43;;;8.57;;
61393;SDS011;48555;50.952;-0.120;2023-04-24T03:34:13;12.48;;;8.77;;
61393;SDS011;48555;50.952;-0.120;2023-04-24T03:36:39;11.82;;;8.30;;
61393;SDS011;48555;50.952;-0.120;2023-04-24T03:39:04;13.05;;;8.40;;
61393;SDS011;48555;50.952;-0.120;2023-04-24T03:41:30;12.15;;;8.38;;
61393;SDS011;48555;50.952;-0.120;2023-04-24T03:43:55;13.18;;;9.48;;
61393;SDS011;48555;50.952;-0.120;2023-04-24T03:46:21;10.80;;;8.38;;
61393;SDS011;48555;50.952;-0.120;2023-04-24T03:48:46;13.18;;;9.20;;
61393;SDS011;48555;50.952;-0.120;2023-04-24T03:51:12;13.32;;;9.45;;
61393;SDS011;48555;50.952;-0.120;2023-04-24T03:53:37;12.07;;;8.93;;
61393;SDS011;48555;50.952;-0.120;2023-04-24T03:56:02;12.48;;;8.95;;
61393;SDS011;48555;50.952;-0.120;2023-04-24T03:58:28;11.32;;;8.38;;
61393;SDS011;48555;50.952;-0.120;2023-04-24T04:00:53;11.82;;;8.38;;
61393;SDS011;48555;50.952;-0.120;2023-04-24T04:03:18;13.70;;;9.48;;
61393;SDS011;48555;50.952;-0.120;2023-04-24T04:05:44;12.80;;;9.07;;
61393;SDS011;48555;50.952;-0.120;2023-04-24T04:08:10;12.68;;;9.20;;
61393;SDS011;48555;50.952;-0.120;2023-04-24T04:10:35;13.02;;;8.75;;
61393;SDS011;48555;50.952;-0.120;2023-04-24T04:13:00;12.57;;;9.40;;
61393;SDS011;48555;50.952;-0.120;2023-04-24T04:15:26;12.70;;;8.82;;
61393;SDS011;48555;50.952;-0.120;2023-04-24T04:17:51;11.98;;;9.23;;
61393;SDS011;48555;50.952;-0.120;2023-04-24T04:20:16;12.95;;;9.52;;
61393;SDS011;48555;50.952;-0.120;2023-04-24T04:22:42;12.20;;;8.30;;
61393;SDS011;48555;50.952;-0.120;2023-04-24T04:25:07;11.90;;;9.20;;
61393;SDS011;48555;50.952;-0.120;2023-04-24T04:27:33;13.55;;;8.90;;
61393;SDS011;48555;50.952;-0.120;2023-04-24T04:29:59;12.45;;;9.27;;
61393;SDS011;48555;50.952;-0.120;2023-04-24T04:32:29;12.45;;;8.45;;
61393;SDS011;48555;50.952;-0.120;2023-04-24T04:34:59;11.60;;;8.57;;
61393;SDS011;48555;50.952;-0.120;2023-04-24T04:37:28;13.70;;;9.32;;
61393;SDS011;48555;50.952;-0.120;2023-04-24T04:39:54;13.10;;;8.93;;
61393;SDS011;48555;50.952;-0.120;2023-04-24T04:42:19;12.70;;;9.23;;
61393;SDS011;48555;50.952;-0.120;2023-04-24T04:44:45;16.55;;;8.50;;
61393;SDS011;48555;50.952;-0.120;2023-04-24T04:47:11;13.02;;;8.43;;
61393;SDS011;48555;50.952;-0.120;2023-04-24T04:49:37;11.77;;;9.00;;
61393;SDS011;48555;50.952;-0.120;2023-04-24T04:52:03;11.82;;;8.55;;
61393;SDS011;48555;50.952;-0.120;2023-04-24T04:54:29;12.25;;;9.30;;
61393;SDS011;48555;50.952;-0.120;2023-04-24T04:56:54;12.82;;;9.20;;
61393;SDS011;48555;50.952;-0.120;2023-04-24T04:59:20;12.27;;;8.35;;
61393;SDS011;48555;50.952;-0.120;2023-04-24T05:01:45;14.38;;;9.73;;
61393;SDS011;48555;50.952;-0.120;2023-04-24T05:04:11;13.48;;;9.70;;
61393;SDS011;48555;50.952;-0.120;2023-04-24T05:06:36;12.10;;;9.27;;
61393;SDS011;48555;50.952;-0.120;2023-04-24T05:09:02;12.02;;;8.63;;
61393;SDS011;48555;50.952;-0.120;2023-04-24T05:11:28;13.30;;;8.95;;
61393;SDS011;48555;50.952;-0.120;2023-04-24T05:13:54;13.50;;;9.73;;
61393;SDS011;48555;50.952;-0.120;2023-04-24T05:16:20;11.10;;;8.25;;
61393;SDS011;48555;50.952;-0.120;2023-04-24T05:18:45;14.15;;;8.70;;
61393;SDS011;48555;50.952;-0.120;2023-04-24T05:21:10;12.00;;;9.35;;
61393;SDS011;48555;50.952;-0.120;2023-04-24T05:23:36;13.35;;;9.05;;
61393;SDS011;48555;50.952;-0.120;2023-04-24T05:26:01;12.02;;;8.27;;
61393;SDS011;48555;50.952;-0.120;2023-04-24T05:28:27;12.85;;;9.32;;
61393;SDS011;48555;50.952;-0.120;2023-04-24T05:30:53;12.50;;;9.05;;
61393;SDS011;48555;50.952;-0.120;2023-04-24T05:33:20;13.93;;;9.30;;
61393;SDS011;48555;50.952;-0.120;2023-04-24T05:35:47;12.80;;;8.65;;
61393;SDS011;48555;50.952;-0.120;2023-04-24T05:38:12;11.82;;;7.60;;
61393;SDS011;48555;50.952;-0.120;2023-04-24T05:40:38;11.90;;;8.82;;
61393;SDS011;48555;50.952;-0.120;2023-04-24T05:43:04;11.20;;;8.38;;
61393;SDS011;48555;50.952;-0.120;2023-04-24T05:45:29;10.73;;;8.10;;
61393;SDS011;48555;50.952;-0.120;2023-04-24T05:47:55;12.25;;;8.82;;
61393;SDS011;48555;50.952;-0.120;2023-04-24T05:50:21;12.00;;;8.57;;
61393;SDS011;48555;50.952;-0.120;2023-04-24T05:52:46;12.02;;;8.90;;
61393;SDS011;48555;50.952;-0.120;2023-04-24T05:55:11;11.20;;;8.27;;
61393;SDS011;48555;50.952;-0.120;2023-04-24T05:57:37;11.68;;;8.50;;
61393;SDS011;48555;50.952;-0.120;2023-04-24T06:00:03;12.18;;;9.05;;
61393;SDS011;48555;50.952;-0.120;2023-04-24T06:02:29;13.18;;;9.75;;
61393;SDS011;48555;50.952;-0.120;2023-04-24T06:04:57;11.85;;;9.15;;
61393;SDS011;48555;50.952;-0.120;2023-04-24T06:07:24;12.75;;;8.77;;
61393;SDS011;48555;50.952;-0.120;2023-04-24T06:09:51;12.48;;;9.75;;
61393;SDS011;48555;50.952;-0.120;2023-04-24T06:12:17;11.65;;;9.02;;
61393;SDS011;48555;50.952;-0.120;2023-04-24T06:14:42;10.93;;;8.38;;
61393;SDS011;48555;50.952;-0.120;2023-04-24T06:17:07;11.95;;;9.23;;
61393;SDS011;48555;50.952;-0.120;2023-04-24T06:19:33;12.60;;;8.82;;
61393;SDS011;48555;50.952;-0.120;2023-04-24T06:21:58;10.95;;;8.68;;
61393;SDS011;48555;50.952;-0.120;2023-04-24T06:24:27;10.98;;;9.13;;
61393;SDS011;48555;50.952;-0.120;2023-04-24T06:26:52;10.95;;;7.57;;
61393;SDS011;48555;50.952;-0.120;2023-04-24T06:29:18;11.70;;;8.57;;
61393;SDS011;48555;50.952;-0.120;2023-04-24T06:31:43;11.27;;;8.23;;
61393;SDS011;48555;50.952;-0.120;2023-04-24T06:34:08;11.55;;;8.80;;
61393;SDS011;48555;50.952;-0.120;2023-04-24T06:36:34;11.07;;;8.63;;
61393;SDS011;48555;50.952;-0.120;2023-04-24T06:39:00;10.43;;;8.20;;
61393;SDS011;48555;50.952;-0.120;2023-04-24T06:41:26;12.02;;;8.07;;
61393;SDS011;48555;50.952;-0.120;2023-04-24T06:43:52;10.48;;;7.40;;
61393;SDS011;48555;50.952;-0.120;2023-04-24T06:46:17;10.00;;;7.47;;
61393;SDS011;48555;50.952;-0.120;2023-04-24T06:48:43;10.07;;;7.90;;
61393;SDS011;48555;50.952;-0.120;2023-04-24T06:51:08;11.95;;;8.07;;
61393;SDS011;48555;50.952;-0.120;2023-04-24T06:53:34;10.35;;;8.18;;
61393;SDS011;48555;50.952;-0.120;2023-04-24T06:56:00;11.25;;;8.20;;
61393;SDS011;48555;50.952;-0.120;2023-04-24T06:58:25;10.77;;;8.40;;
61393;SDS011;48555;50.952;-0.120;2023-04-24T07:00:50;10.82;;;8.30;;
61393;SDS011;48555;50.952;-0.120;2023-04-24T07:03:16;9.48;;;7.72;;
61393;SDS011;48555;50.952;-0.120;2023-04-24T07:05:41;10.50;;;7.47;;
61393;SDS011;48555;50.952;-0.120;2023-04-24T07:08:07;10.25;;;7.32;;
61393;SDS011;48555;50.952;-0.120;2023-04-24T07:10:33;9.90;;;7.53;;
61393;SDS011;48555;50.952;-0.120;2023-04-24T07:13:00;9.68;;;7.53;;
61393;SDS011;48555;50.952;-0.120;2023-04-24T07:15:26;9.65;;;7.88;;
61393;SDS011;48555;50.952;-0.120;2023-04-24T07:17:52;10.05;;;8.00;;
61393;SDS011;48555;50.952;-0.120;2023-04-24T07:20:17;10.40;;;7.22;;
61393;SDS011;48555;50.952;-0.120;2023-04-24T07:22:42;9.73;;;7.40;;
61393;SDS011;48555;50.952;-0.120;2023-04-24T07:25:08;9.38;;;7.22;;
61393;SDS011;48555;50.952;-0.120;2023-04-24T07:27:34;8.93;;;7.65;;
61393;SDS011;48555;50.952;-0.120;2023-04-24T07:30:01;10.98;;;8.52;;
61393;SDS011;48555;50.952;-0.120;2023-04-24T07:32:27;10.75;;;8.70;;
61393;SDS011;48555;50.952;-0.120;2023-04-24T07:34:52;11.55;;;8.68;;
61393;SDS011;48555;50.952;-0.120;2023-04-24T07:37:17;11.32;;;8.18;;
61393;SDS011;48555;50.952;-0.120;2023-04-24T07:39:43;10.18;;;7.90;;
61393;SDS011;48555;50.952;-0.120;2023-04-24T07:42:08;13.85;;;8.70;;
61393;SDS011;48555;50.952;-0.120;2023-04-24T07:44:33;9.70;;;7.68;;
61393;SDS011;48555;50.952;-0.120;2023-04-24T07:46:59;9.52;;;7.30;;
61393;SDS011;48555;50.952;-0.120;2023-04-24T07:49:24;9.23;;;7.38;;
61393;SDS011;48555;50.952;-0.120;2023-04-24T07:51:50;8.73;;;6.78;;
61393;SDS011;48555;50.952;-0.120;2023-04-24T07:54:15;9.15;;;6.75;;
61393;SDS011;48555;50.952;-0.120;2023-04-24T07:56:41;9.43;;;7.22;;
61393;SDS011;48555;50.952;-0.120;2023-04-24T07:59:09;9.13;;;7.55;;
61393;SDS011;48555;50.952;-0.120;2023-04-24T08:01:35;10.05;;;7.07;;
61393;SDS011;48555;50.952;-0.120;2023-04-24T08:04:01;10.20;;;6.85;;
61393;SDS011;48555;50.952;-0.120;2023-04-24T08:06:27;9.68;;;7.13;;
61393;SDS011;48555;50.952;-0.120;2023-04-24T08:08:55;9.93;;;7.00;;
61393;SDS011;48555;50.952;-0.120;2023-04-24T08:11:21;9.40;;;7.20;;
61393;SDS011;48555;50.952;-0.120;2023-04-24T08:13:46;7.80;;;6.10;;
61393;SDS011;48555;50.952;-0.120;2023-04-24T08:16:12;7.72;;;6.72;;
61393;SDS011;48555;50.952;-0.120;2023-04-24T08:18:37;8.68;;;6.50;;
61393;SDS011;48555;50.952;-0.120;2023-04-24T08:21:02;9.30;;;6.90;;
61393;SDS011;48555;50.952;-0.120;2023-04-24T08:23:28;8.10;;;5.82;;
61393;SDS011;48555;50.952;-0.120;2023-04-24T08:25:54;9.80;;;6.18;;
61393;SDS011;48555;50.952;-0.120;2023-04-24T08:28:20;11.25;;;6.50;;
61393;SDS011;48555;50.952;-0.120;2023-04-24T08:30:45;9.93;;;6.35;;
61393;SDS011;48555;50.952;-0.120;2023-04-24T08:33:12;9.55;;;6.35;;
61393;SDS011;48555;50.952;-0.120;2023-04-24T08:35:37;10.60;;;6.60;;
61393;SDS011;48555;50.952;-0.120;2023-04-24T08:38:03;9.00;;;6.43;;
61393;SDS011;48555;50.952;-0.120;2023-04-24T08:40:29;9.02;;;6.55;;
61393;SDS011;48555;50.952;-0.120;2023-04-24T08:42:59;9.40;;;6.00;;
61393;SDS011;48555;50.952;-0.120;2023-04-24T08:45:25;9.32;;;6.07;;
61393;SDS011;48555;50.952;-0.120;2023-04-24T08:47:52;9.48;;;6.97;;
61393;SDS011;48555;50.952;-0.120;2023-04-24T08:50:19;10.05;;;6.63;;
61393;SDS011;48555;50.952;-0.120;2023-04-24T08:52:45;11.13;;;6.97;;
61393;SDS011;48555;50.952;-0.120;2023-04-24T08:55:12;8.07;;;6.43;;
61393;SDS011;48555;50.952;-0.120;2023-04-24T08:57:38;8.90;;;6.80;;
61393;SDS011;48555;50.952;-0.120;2023-04-24T09:00:06;9.38;;;6.68;;
61393;SDS011;48555;50.952;-0.120;2023-04-24T09:02:32;8.85;;;6.07;;
61393;SDS011;48555;50.952;-0.120;2023-04-24T09:04:59;10.85;;;6.53;;
61393;SDS011;48555;50.952;-0.120;2023-04-24T09:07:26;9.65;;;6.60;;
61393;SDS011;48555;50.952;-0.120;2023-04-24T09:09:55;9.57;;;6.63;;
61393;SDS011;48555;50.952;-0.120;2023-04-24T09:12:21;9.98;;;6.68;;
61393;SDS011;48555;50.952;-0.120;2023-04-24T09:14:47;8.57;;;6.45;;
61393;SDS011;48555;50.952;-0.120;2023-04-24T09:17:13;9.20;;;7.00;;
61393;SDS011;48555;50.952;-0.120;2023-04-24T09:19:38;9.88;;;7.13;;
61393;SDS011;48555;50.952;-0.120;2023-04-24T09:22:07;9.00;;;6.68;;
61393;SDS011;48555;50.952;-0.120;2023-04-24T09:24:34;8.98;;;6.72;;
61393;SDS011;48555;50.952;-0.120;2023-04-24T09:27:00;9.02;;;6.20;;
61393;SDS011;48555;50.952;-0.120;2023-04-24T09:29:26;8.20;;;5.90;;
61393;SDS011;48555;50.952;-0.120;2023-04-24T09:31:52;8.52;;;5.50;;
61393;SDS011;48555;50.952;-0.120;2023-04-24T09:34:24;8.40;;;5.40;;
61393;SDS011;48555;50.952;-0.120;2023-04-24T09:36:51;8.95;;;5.85;;
61393;SDS011;48555;50.952;-0.120;2023-04-24T09:39:17;8.73;;;6.10;;
61393;SDS011;48555;50.952;-0.120;2023-04-24T09:41:52;7.18;;;5.72;;
61393;SDS011;48555;50.952;-0.120;2023-04-24T09:44:26;8.48;;;6.13;;
61393;SDS011;48555;50.952;-0.120;2023-04-24T09:46:56;9.57;;;6.13;;
61393;SDS011;48555;50.952;-0.120;2023-04-24T09:49:24;7.53;;;5.35;;
61393;SDS011;48555;50.952;-0.120;2023-04-24T09:52:08;7.05;;;4.85;;
61393;SDS011;48555;50.952;-0.120;2023-04-24T09:54:35;6.88;;;4.82;;
61393;SDS011;48555;50.952;-0.120;2023-04-24T09:57:03;6.50;;;4.15;;
61393;SDS011;48555;50.952;-0.120;2023-04-24T09:59:29;7.25;;;4.95;;
61393;SDS011;48555;50.952;-0.120;2023-04-24T10:01:55;8.80;;;5.32;;
61393;SDS011;48555;50.952;-0.120;2023-04-24T10:04:22;10.13;;;5.22;;
61393;SDS011;48555;50.952;-0.120;2023-04-24T10:06:50;9.18;;;5.50;;
61393;SDS011;48555;50.952;-0.120;2023-04-24T10:09:17;7.70;;;4.93;;
61393;SDS011;48555;50.952;-0.120;2023-04-24T10:11:44;7.55;;;4.57;;
61393;SDS011;48555;50.952;-0.120;2023-04-24T10:14:12;8.07;;;5.03;;
61393;SDS011;48555;50.952;-0.120;2023-04-24T10:16:39;7.43;;;5.10;;
61393;SDS011;48555;50.952;-0.120;2023-04-24T10:19:05;8.35;;;5.45;;
61393;SDS011;48555;50.952;-0.120;2023-04-24T10:21:31;7.50;;;5.07;;
61393;SDS011;48555;50.952;-0.120;2023-04-24T10:23:57;7.20;;;4.90;;
61393;SDS011;48555;50.952;-0.120;2023-04-24T10:26:24;8.13;;;4.70;;
61393;SDS011;48555;50.952;-0.120;2023-04-24T10:28:51;7.60;;;5.00;;
61393;SDS011;48555;50.952;-0.120;2023-04-24T10:31:19;7.25;;;4.65;;
61393;SDS011;48555;50.952;-0.120;2023-04-24T10:33:45;6.85;;;4.72;;
61393;SDS011;48555;50.952;-0.120;2023-04-24T10:36:11;8.63;;;4.88;;
61393;SDS011;48555;50.952;-0.120;2023-04-24T10:38:39;8.43;;;4.88;;
61393;SDS011;48555;50.952;-0.120;2023-04-24T10:41:07;7.57;;;5.22;;
61393;SDS011;48555;50.952;-0.120;2023-04-24T10:43:34;8.18;;;5.00;;
61393;SDS011;48555;50.952;-0.120;2023-04-24T10:46:03;8.57;;;5.05;;
61393;SDS011;48555;50.952;-0.120;2023-04-24T10:48:30;8.30;;;4.30;;
61393;SDS011;48555;50.952;-0.120;2023-04-24T10:50:57;7.07;;;4.65;;
61393;SDS011;48555;50.952;-0.120;2023-04-24T10:53:23;8.02;;;4.57;;
61393;SDS011;48555;50.952;-0.120;2023-04-24T10:56:00;7.07;;;4.53;;
61393;SDS011;48555;50.952;-0.120;2023-04-24T10:58:38;7.22;;;4.75;;
61393;SDS011;48555;50.952;-0.120;2023-04-24T11:01:06;8.15;;;6.00;;
61393;SDS011;48555;50.952;-0.120;2023-04-24T11:03:32;7.15;;;4.60;;
61393;SDS011;48555;50.952;-0.120;2023-04-24T11:06:01;7.13;;;5.18;;
61393;SDS011;48555;50.952;-0.120;2023-04-24T11:08:52;7.88;;;5.32;;
61393;SDS011;48555;50.952;-0.120;2023-04-24T11:11:17;8.98;;;5.88;;
61393;SDS011;48555;50.952;-0.120;2023-04-24T11:16:31;8.63;;;5.47;;
61393;SDS011;48555;50.952;-0.120;2023-04-24T11:21:48;10.23;;;6.50;;
61393;SDS011;48555;50.952;-0.120;2023-04-24T11:24:29;8.48;;;6.03;;
61393;SDS011;48555;50.952;-0.120;2023-04-24T11:32:53;12.80;;;6.63;;
61393;SDS011;48555;50.952;-0.120;2023-04-24T11:35:08;8.93;;;6.28;;
61393;SDS011;48555;50.952;-0.120;2023-04-24T11:37:42;10.38;;;6.57;;
61393;SDS011;48555;50.952;-0.120;2023-04-24T11:40:11;9.07;;;6.00;;
61393;SDS011;48555;50.952;-0.120;2023-04-24T11:42:38;8.70;;;5.50;;
61393;SDS011;48555;50.952;-0.120;2023-04-24T11:45:12;10.02;;;6.40;;
61393;SDS011;48555;50.952;-0.120;2023-04-24T11:47:40;8.88;;;5.78;;
61393;SDS011;48555;50.952;-0.120;2023-04-24T11:50:07;8.35;;;5.28;;
61393;SDS011;48555;50.952;-0.120;2023-04-24T11:52:39;10.15;;;5.28;;
61393;SDS011;48555;50.952;-0.120;2023-04-24T11:55:24;8.80;;;5.70;;
61393;SDS011;48555;50.952;-0.120;2023-04-24T11:57:58;8.70;;;5.78;;
61393;SDS011;48555;50.952;-0.120;2023-04-24T12:02:51;7.78;;;5.30;;
61393;SDS011;48555;50.952;-0.120;2023-04-24T12:05:28;8.45;;;5.20;;
61393;SDS011;48555;50.952;-0.120;2023-04-24T12:07:56;9.60;;;5.78;;
61393;SDS011;48555;50.952;-0.120;2023-04-24T12:10:21;8.65;;;6.13;;
61393;SDS011;48555;50.952;-0.120;2023-04-24T12:12:48;8.45;;;5.47;;
61393;SDS011;48555;50.952;-0.120;2023-04-24T12:15:16;11.23;;;6.57;;
61393;SDS011;48555;50.952;-0.120;2023-04-24T12:17:43;7.30;;;6.10;;
61393;SDS011;48555;50.952;-0.120;2023-04-24T12:20:09;9.50;;;5.85;;
61393;SDS011;48555;50.952;-0.120;2023-04-24T12:22:51;8.18;;;5.95;;
61393;SDS011;48555;50.952;-0.120;2023-04-24T12:25:21;8.85;;;6.18;;
61393;SDS011;48555;50.952;-0.120;2023-04-24T12:27:55;7.47;;;5.78;;
61393;SDS011;48555;50.952;-0.120;2023-04-24T12:30:48;9.48;;;6.18;;
61393;SDS011;48555;50.952;-0.120;2023-04-24T12:33:17;9.45;;;5.78;;
61393;SDS011;48555;50.952;-0.120;2023-04-24T12:35:44;8.27;;;5.55;;
61393;SDS011;48555;50.952;-0.120;2023-04-24T12:38:11;8.95;;;5.50;;
61393;SDS011;48555;50.952;-0.120;2023-04-24T12:40:38;8.20;;;5.47;;
61393;SDS011;48555;50.952;-0.120;2023-04-24T12:43:13;8.27;;;5.55;;
61393;SDS011;48555;50.952;-0.120;2023-04-24T12:45:41;8.55;;;5.70;;
61393;SDS011;48555;50.952;-0.120;2023-04-24T12:48:06;9.90;;;6.00;;
61393;SDS011;48555;50.952;-0.120;2023-04-24T12:50:31;7.88;;;5.55;;
61393;SDS011;48555;50.952;-0.120;2023-04-24T12:52:56;13.40;;;5.57;;
61393;SDS011;48555;50.952;-0.120;2023-04-24T12:55:22;9.65;;;5.70;;
61393;SDS011;48555;50.952;-0.120;2023-04-24T12:57:47;8.40;;;5.50;;
61393;SDS011;48555;50.952;-0.120;2023-04-24T13:00:13;9.80;;;4.82;;
61393;SDS011;48555;50.952;-0.120;2023-04-24T13:02:38;7.75;;;4.95;;
61393;SDS011;48555;50.952;-0.120;2023-04-24T13:05:05;9.07;;;4.75;;
61393;SDS011;48555;50.952;-0.120;2023-04-24T13:07:31;8.43;;;4.90;;
61393;SDS011;48555;50.952;-0.120;2023-04-24T13:09:56;8.35;;;5.05;;
61393;SDS011;48555;50.952;-0.120;2023-04-24T13:12:22;7.78;;;5.15;;
61393;SDS011;48555;50.952;-0.120;2023-04-24T13:14:49;8.30;;;5.10;;
61393;SDS011;48555;50.952;-0.120;2023-04-24T13:17:14;8.02;;;4.97;;
61393;SDS011;48555;50.952;-0.120;2023-04-24T13:19:40;7.13;;;4.95;;
61393;SDS011;48555;50.952;-0.120;2023-04-24T13:22:08;9.77;;;5.00;;
61393;SDS011;48555;50.952;-0.120;2023-04-24T13:24:34;7.88;;;4.93;;
61393;SDS011;48555;50.952;-0.120;2023-04-24T13:27:00;6.22;;;4.43;;
61393;SDS011;48555;50.952;-0.120;2023-04-24T13:29:25;8.23;;;4.65;;
61393;SDS011;48555;50.952;-0.120;2023-04-24T13:31:51;6.28;;;3.97;;
61393;SDS011;48555;50.952;-0.120;2023-04-24T13:34:19;6.68;;;3.80;;
61393;SDS011;48555;50.952;-0.120;2023-04-24T13:36:45;10.32;;;3.85;;
61393;SDS011;48555;50.952;-0.120;2023-04-24T13:39:11;6.30;;;3.47;;
61393;SDS011;48555;50.952;-0.120;2023-04-24T13:41:36;7.28;;;3.55;;
61393;SDS011;48555;50.952;-0.120;2023-04-24T13:44:03;7.63;;;3.60;;
61393;SDS011;48555;50.952;-0.120;2023-04-24T13:46:28;6.28;;;3.40;;
61393;SDS011;48555;50.952;-0.120;2023-04-24T13:48:54;6.80;;;3.85;;
61393;SDS011;48555;50.952;-0.120;2023-04-24T13:51:19;7.63;;;4.10;;
61393;SDS011;48555;50.952;-0.120;2023-04-24T13:53:45;7.38;;;3.50;;
61393;SDS011;48555;50.952;-0.120;2023-04-24T13:56:10;8.85;;;3.40;;
61393;SDS011;48555;50.952;-0.120;2023-04-24T13:58:37;7.15;;;3.55;;
61393;SDS011;48555;50.952;-0.120;2023-04-24T14:01:03;6.90;;;3.45;;
61393;SDS011;48555;50.952;-0.120;2023-04-24T14:03:29;7.22;;;3.67;;
61393;SDS011;48555;50.952;-0.120;2023-04-24T14:05:54;6.82;;;3.40;;
61393;SDS011;48555;50.952;-0.120;2023-04-24T14:08:20;7.20;;;3.55;;
61393;SDS011;48555;50.952;-0.120;2023-04-24T14:10:45;7.72;;;3.42;;
61393;SDS011;48555;50.952;-0.120;2023-04-24T14:13:11;8.70;;;3.30;;
61393;SDS011;48555;50.952;-0.120;2023-04-24T14:15:37;7.75;;;3.10;;
61393;SDS011;48555;50.952;-0.120;2023-04-24T14:18:02;7.40;;;3.05;;
61393;SDS011;48555;50.952;-0.120;2023-04-24T14:20:28;7.43;;;3.08;;
61393;SDS011;48555;50.952;-0.120;2023-04-24T14:22:54;8.57;;;3.10;;
61393;SDS011;48555;50.952;-0.120;2023-04-24T14:25:19;10.05;;;3.63;;
61393;SDS011;48555;50.952;-0.120;2023-04-24T14:27:44;10.43;;;3.42;;
61393;SDS011;48555;50.952;-0.120;2023-04-24T14:30:10;12.68;;;3.72;;
61393;SDS011;48555;50.952;-0.120;2023-04-24T14:32:37;8.55;;;3.20;;
61393;SDS011;48555;50.952;-0.120;2023-04-24T14:35:03;7.85;;;3.30;;